createdAt,value
2019-01-20T00:00:56.239Z,-2.58
2019-01-20T00:03:24.937Z,-2.82
2019-01-20T00:05:53.597Z,-3.19
2019-01-20T00:08:22.307Z,-3.29
2019-01-20T00:10:50.933Z,-2.96
2019-01-20T00:13:19.652Z,-2.74
2019-01-20T00:15:48.349Z,-2.51
2019-01-20T00:18:17.009Z,-2.43
2019-01-20T00:21:04.932Z,-2.38
2019-01-20T00:23:33.654Z,-2.20
2019-01-20T00:26:02.309Z,-2.29
2019-01-20T00:28:31.006Z,-2.51
2019-01-20T00:30:59.701Z,-2.22
2019-01-20T00:33:28.338Z,-2.27
2019-01-20T00:35:57.073Z,-2.35
2019-01-20T00:38:25.866Z,-2.29
2019-01-20T00:40:54.497Z,-2.19
2019-01-20T00:43:23.118Z,-2.27
2019-01-20T00:45:51.798Z,-2.23
2019-01-20T00:48:20.565Z,-2.25
2019-01-20T00:50:49.285Z,-2.39
2019-01-20T00:53:17.898Z,-2.81
2019-01-20T00:55:46.633Z,-2.76
2019-01-20T00:58:15.337Z,-3.01
2019-01-20T01:00:44.112Z,-3.32
2019-01-20T01:03:12.825Z,-3.55
2019-01-20T01:05:41.569Z,-3.54
2019-01-20T01:08:10.350Z,-3.49
2019-01-20T01:10:39.243Z,-3.68
2019-01-20T01:13:08.031Z,-3.68
2019-01-20T01:15:36.757Z,-3.78
2019-01-20T01:18:05.462Z,-3.95
2019-01-20T01:20:34.085Z,-3.88
2019-01-20T01:23:02.855Z,-3.74
2019-01-20T01:25:31.485Z,-3.47
2019-01-20T01:28:00.152Z,-3.08
2019-01-20T01:30:28.862Z,-2.97
2019-01-20T01:32:57.501Z,-2.78
2019-01-20T01:35:26.198Z,-2.60
2019-01-20T01:37:54.892Z,-2.50
2019-01-20T01:40:23.599Z,-2.56
2019-01-20T01:42:52.243Z,-2.40
2019-01-20T01:45:21.409Z,-2.50
2019-01-20T01:47:50.138Z,-2.45
2019-01-20T01:50:19.244Z,-2.36
2019-01-20T01:52:48.005Z,-2.33
2019-01-20T01:55:16.872Z,-2.17
2019-01-20T01:57:45.564Z,-2.13
2019-01-20T02:03:49.416Z,-2.17
2019-01-20T02:06:18.140Z,-2.09
2019-01-20T02:08:46.816Z,-2.06
2019-01-20T02:11:15.420Z,-2.13
2019-01-20T02:13:44.097Z,-2.17
2019-01-20T02:16:12.780Z,-2.08
2019-01-20T02:18:41.446Z,-2.03
2019-01-20T02:21:10.193Z,-2.05
2019-01-20T02:23:38.964Z,-2.01
2019-01-20T02:26:07.682Z,-2.02
2019-01-20T02:28:36.335Z,-2.06
2019-01-20T02:31:05.047Z,-2.04
2019-01-20T02:33:33.668Z,-2.05
2019-01-20T02:36:02.282Z,-1.91
2019-01-20T02:38:30.916Z,-1.96
2019-01-20T02:40:59.551Z,-1.85
2019-01-20T02:43:47.400Z,-1.81
2019-01-20T02:46:16.159Z,-1.87
2019-01-20T02:48:44.937Z,-1.89
2019-01-20T02:51:13.493Z,-1.96
2019-01-20T02:53:42.167Z,-1.94
2019-01-20T02:56:10.862Z,-2.02
2019-01-20T02:58:58.703Z,-2.11
2019-01-20T03:01:27.334Z,-2.19
2019-01-20T03:03:56.005Z,-2.13
2019-01-20T03:06:24.693Z,-2.05
2019-01-20T03:08:53.334Z,-2.01
2019-01-20T03:11:21.966Z,-2.12
2019-01-20T03:13:50.689Z,-2.12
2019-01-20T03:16:19.392Z,-2.14
2019-01-20T03:21:37.446Z,-2.32
2019-01-20T03:24:06.270Z,-2.36
2019-01-20T03:26:34.933Z,-2.31
2019-01-20T03:29:03.536Z,-2.36
2019-01-20T03:31:32.292Z,-2.33
2019-01-20T03:34:00.976Z,-2.28
2019-01-20T03:36:29.659Z,-2.30
2019-01-20T03:38:58.356Z,-2.36
2019-01-20T03:42:11.906Z,-2.41
2019-01-20T03:44:35.165Z,-2.49
2019-01-20T03:47:03.867Z,-2.46
2019-01-20T03:49:32.561Z,-2.51
2019-01-20T03:52:01.190Z,-2.37
2019-01-20T03:54:29.799Z,-2.42
2019-01-20T03:56:58.434Z,-2.49
2019-01-20T03:59:27.177Z,-2.54
2019-01-20T04:01:55.866Z,-2.49
2019-01-20T04:04:24.500Z,-2.46
2019-01-20T04:06:53.162Z,-2.51
2019-01-20T04:09:21.845Z,-2.63
2019-01-20T04:11:50.476Z,-2.55
2019-01-20T04:14:19.135Z,-2.47
2019-01-20T04:16:47.774Z,-2.44
2019-01-20T04:19:16.393Z,-2.55
2019-01-20T04:21:45.111Z,-2.49
2019-01-20T04:24:13.725Z,-2.50
2019-01-20T04:26:42.414Z,-2.61
2019-01-20T04:29:11.001Z,-2.67
2019-01-20T04:31:39.648Z,-2.63
2019-01-20T04:34:08.273Z,-2.63
2019-01-20T04:36:36.990Z,-2.51
2019-01-20T04:39:07.389Z,-2.45
2019-01-20T04:41:36.241Z,-2.49
2019-01-20T04:47:19.021Z,-2.57
2019-01-20T04:49:47.633Z,-2.60
2019-01-20T04:52:16.279Z,-2.60
2019-01-20T04:54:45.004Z,-2.61
2019-01-20T04:59:49.232Z,-2.53
2019-01-20T05:02:17.863Z,-2.62
2019-01-20T05:04:47.210Z,-2.66
2019-01-20T05:07:16.926Z,-2.65
2019-01-20T05:09:45.534Z,-2.63
2019-01-20T05:12:14.177Z,-2.73
2019-01-20T05:14:42.781Z,-2.82
2019-01-20T05:17:11.456Z,-2.74
2019-01-20T05:19:40.168Z,-2.89
2019-01-20T05:22:08.801Z,-2.96
2019-01-20T05:24:37.484Z,-2.87
2019-01-20T05:27:06.102Z,-2.84
2019-01-20T05:29:34.765Z,-2.93
2019-01-20T05:32:03.451Z,-2.93
2019-01-20T05:34:32.106Z,-2.86
2019-01-20T05:37:00.735Z,-2.91
2019-01-20T05:39:29.357Z,-2.91
2019-01-20T05:41:57.972Z,-2.88
2019-01-20T05:44:26.599Z,-2.90
2019-01-20T05:46:55.240Z,-2.95
2019-01-20T05:49:23.869Z,-2.98
2019-01-20T05:51:52.481Z,-2.93
2019-01-20T05:54:21.110Z,-2.92
2019-01-20T05:56:49.722Z,-2.91
2019-01-20T05:59:18.382Z,-2.90
2019-01-20T06:01:46.992Z,-2.95
2019-01-20T06:04:15.685Z,-2.85
2019-01-20T06:06:44.300Z,-2.90
2019-01-20T06:09:12.998Z,-2.89
2019-01-20T06:11:41.720Z,-2.95
2019-01-20T06:14:10.373Z,-2.93
2019-01-20T06:16:39.059Z,-2.89
2019-01-20T06:19:07.677Z,-2.97
2019-01-20T06:21:36.303Z,-2.99
2019-01-20T06:24:05.045Z,-2.93
2019-01-20T06:26:33.657Z,-2.90
2019-01-20T06:29:02.282Z,-2.94
2019-01-20T06:31:30.917Z,-2.92
2019-01-20T06:33:59.593Z,-2.89
2019-01-20T06:36:28.230Z,-2.93
2019-01-20T06:38:56.890Z,-3.06
2019-01-20T06:41:25.513Z,-3.01
2019-01-20T06:43:54.155Z,-2.98
2019-01-20T06:46:22.777Z,-2.99
2019-01-20T06:48:51.397Z,-3.00
2019-01-20T06:51:40.662Z,-2.97
2019-01-20T06:54:09.287Z,-2.92
2019-01-20T06:56:37.929Z,-2.90
2019-01-20T06:59:06.578Z,-2.95
2019-01-20T07:01:35.197Z,-3.00
2019-01-20T07:04:23.079Z,-3.04
2019-01-20T07:06:51.785Z,-3.00
2019-01-20T07:09:20.484Z,-3.05
2019-01-20T07:11:49.101Z,-3.13
2019-01-20T07:14:17.783Z,-3.13
2019-01-20T07:16:46.409Z,-3.18
2019-01-20T07:19:15.168Z,-3.18
2019-01-20T07:21:43.793Z,-3.17
2019-01-20T07:24:12.429Z,-3.18
2019-01-20T07:26:41.050Z,-3.27
2019-01-20T07:29:09.681Z,-3.21
2019-01-20T07:31:38.359Z,-3.14
2019-01-20T07:34:06.962Z,-3.20
2019-01-20T07:36:35.606Z,-3.21
2019-01-20T07:42:05.871Z,-3.26
2019-01-20T07:44:34.534Z,-3.25
2019-01-20T07:47:03.210Z,-3.22
2019-01-20T07:49:31.851Z,-3.31
2019-01-20T07:52:00.543Z,-3.21
2019-01-20T07:54:29.183Z,-3.22
2019-01-20T07:56:57.820Z,-3.26
2019-01-20T07:59:26.457Z,-3.25
2019-01-20T08:01:55.113Z,-3.20
2019-01-20T08:04:23.764Z,-3.15
2019-01-20T08:06:52.403Z,-3.14
2019-01-20T08:09:21.093Z,-3.21
2019-01-20T08:11:49.824Z,-3.17
2019-01-20T08:14:18.425Z,-3.25
2019-01-20T08:16:47.064Z,-3.20
2019-01-20T08:19:15.871Z,-3.20
2019-01-20T08:21:44.663Z,-3.27
2019-01-20T08:24:13.294Z,-3.30
2019-01-20T08:26:41.949Z,-3.28
2019-01-20T08:29:12.415Z,-3.19
2019-01-20T08:31:41.039Z,-3.18
2019-01-20T08:34:09.648Z,-3.10
2019-01-20T08:36:38.311Z,-3.18
2019-01-20T08:39:47.222Z,-3.06
2019-01-20T08:42:15.964Z,-3.07
2019-01-20T08:44:45.585Z,-3.03
2019-01-20T08:47:38.714Z,-2.96
2019-01-20T08:50:26.559Z,-2.95
2019-01-20T08:52:55.208Z,-2.88
2019-01-20T08:55:23.996Z,-2.93
2019-01-20T08:57:52.648Z,-2.89
2019-01-20T09:00:21.339Z,-2.89
2019-01-20T09:02:49.977Z,-2.86
2019-01-20T09:05:18.657Z,-2.81
2019-01-20T09:07:47.456Z,-2.81
2019-01-20T09:10:35.435Z,-2.82
2019-01-20T09:15:43.384Z,-2.73
2019-01-20T09:18:12.071Z,-2.65
2019-01-20T09:20:40.708Z,-2.64
2019-01-20T09:23:09.350Z,-2.60
2019-01-20T09:25:38.052Z,-2.39
2019-01-20T09:28:06.892Z,-2.35
2019-01-20T09:30:35.702Z,-2.40
2019-01-20T09:33:04.781Z,-2.34
2019-01-20T09:35:33.423Z,-2.33
2019-01-20T09:38:02.078Z,-2.23
2019-01-20T09:40:30.809Z,-2.15
2019-01-20T09:42:59.523Z,-2.19
2019-01-20T09:45:30.161Z,-2.09
2019-01-20T09:47:59.091Z,-2.11
2019-01-20T09:50:27.859Z,-2.05
2019-01-20T09:52:56.643Z,-1.95
2019-01-20T09:55:25.398Z,-1.82
2019-01-20T09:57:54.071Z,-1.86
2019-01-20T10:00:24.513Z,-1.83
2019-01-20T10:02:53.315Z,-1.79
2019-01-20T10:05:22.057Z,-1.77
2019-01-20T10:08:11.543Z,-1.75
2019-01-20T10:10:40.220Z,-1.72
2019-01-20T10:13:08.896Z,-1.53
2019-01-20T10:15:37.733Z,-1.42
2019-01-20T10:18:06.471Z,-1.35
2019-01-20T10:20:35.275Z,-1.50
2019-01-20T10:23:04.108Z,-1.38
2019-01-20T10:25:32.747Z,-1.33
2019-01-20T10:28:01.476Z,-1.31
2019-01-20T10:30:49.366Z,-1.34
2019-01-20T10:33:18.023Z,-1.25
2019-01-20T10:36:05.712Z,-1.14
2019-01-20T10:38:37.203Z,-1.17
2019-01-20T10:41:05.198Z,-1.07
2019-01-20T10:43:33.914Z,-0.98
2019-01-20T10:46:02.536Z,-0.86
2019-01-20T10:48:31.194Z,-0.85
2019-01-20T10:50:59.988Z,-0.82
2019-01-20T10:53:28.689Z,-0.75
2019-01-20T10:55:57.398Z,-0.80
2019-01-20T10:58:26.249Z,-0.76
2019-01-20T11:00:54.897Z,-0.70
2019-01-20T11:03:23.754Z,-0.66
2019-01-20T11:05:52.488Z,-0.57
2019-01-20T11:08:23.576Z,-0.55
2019-01-20T11:10:52.269Z,-0.46
2019-01-20T11:13:20.905Z,-0.38
2019-01-20T11:15:49.569Z,-0.46
2019-01-20T11:18:18.395Z,-0.42
2019-01-20T11:20:47.187Z,-0.31
2019-01-20T11:23:16.048Z,-0.21
2019-01-20T11:25:44.791Z,-0.20
2019-01-20T11:28:13.618Z,-0.21
2019-01-20T11:30:42.597Z,-0.18
2019-01-20T11:33:11.251Z,-0.15
2019-01-20T11:35:39.941Z,-0.28
2019-01-20T11:38:08.648Z,-0.13
2019-01-20T11:40:37.340Z,-0.13
2019-01-20T11:43:06.041Z,-0.08
2019-01-20T11:45:34.867Z,-0.03
2019-01-20T11:48:22.754Z,-0.02
2019-01-20T11:50:51.537Z,-0.03
2019-01-20T11:53:20.194Z,0.00
2019-01-20T11:55:48.883Z,0.10
2019-01-20T11:58:17.681Z,0.26
2019-01-20T12:00:46.385Z,0.21
2019-01-20T12:03:15.199Z,0.25
2019-01-20T12:05:45.721Z,0.25
2019-01-20T12:08:14.712Z,0.43
2019-01-20T12:10:43.518Z,0.52
2019-01-20T12:13:31.402Z,0.43
2019-01-20T12:16:00.096Z,0.53
2019-01-20T12:18:28.808Z,0.53
2019-01-20T12:20:57.541Z,0.60
2019-01-20T12:23:26.291Z,0.73
2019-01-20T12:25:55.077Z,0.69
2019-01-20T12:28:23.887Z,0.68
2019-01-20T12:30:52.667Z,0.74
2019-01-20T12:33:21.269Z,0.87
2019-01-20T12:35:50.017Z,0.89
2019-01-20T12:38:18.777Z,0.86
2019-01-20T12:40:48.213Z,0.82
2019-01-20T12:43:16.925Z,0.88
2019-01-20T12:45:45.577Z,0.89
2019-01-20T12:48:14.330Z,0.84
2019-01-20T12:50:43.105Z,0.96
2019-01-20T12:53:11.945Z,0.99
2019-01-20T12:55:40.589Z,0.80
2019-01-20T12:58:49.004Z,0.97
2019-01-20T13:01:17.668Z,1.04
2019-01-20T13:03:46.312Z,1.05
2019-01-20T13:06:14.977Z,0.94
2019-01-20T13:08:43.656Z,1.01
2019-01-20T13:11:12.448Z,1.08
2019-01-20T13:13:41.187Z,0.99
2019-01-20T13:16:09.836Z,1.10
2019-01-20T13:18:38.578Z,1.21
2019-01-20T13:21:08.117Z,1.13
2019-01-20T13:23:37.745Z,1.18
2019-01-20T13:26:06.472Z,1.18
2019-01-20T13:28:35.135Z,1.17
2019-01-20T13:31:03.840Z,1.09
2019-01-20T13:33:32.504Z,1.15
2019-01-20T13:36:07.118Z,1.12
2019-01-20T13:38:31.603Z,1.12
2019-01-20T13:41:21.027Z,1.12
2019-01-20T13:43:49.694Z,1.15
2019-01-20T13:46:18.334Z,1.26
2019-01-20T13:48:46.984Z,1.26
2019-01-20T13:51:15.640Z,1.27
2019-01-20T13:54:24.071Z,1.29
2019-01-20T13:56:52.701Z,1.41
2019-01-20T13:59:21.383Z,1.46
2019-01-20T14:01:50.205Z,1.36
2019-01-20T14:04:18.848Z,1.36
2019-01-20T14:06:47.563Z,1.43
2019-01-20T14:09:16.281Z,1.43
2019-01-20T14:11:44.930Z,1.48
2019-01-20T14:14:13.621Z,1.47
2019-01-20T14:16:42.246Z,1.45
2019-01-20T14:19:10.959Z,1.50
2019-01-20T14:21:39.660Z,1.62
2019-01-20T14:24:08.351Z,1.53
2019-01-20T14:26:57.765Z,1.54
2019-01-20T14:29:26.402Z,1.62
2019-01-20T14:31:55.052Z,1.57
2019-01-20T14:34:23.757Z,1.61
2019-01-20T14:36:52.424Z,1.65
2019-01-20T14:39:21.102Z,1.67
2019-01-20T14:41:49.816Z,1.63
2019-01-20T14:44:18.457Z,1.63
2019-01-20T14:46:47.099Z,1.61
2019-01-20T14:49:15.781Z,1.63
2019-01-20T14:51:44.490Z,1.60
2019-01-20T14:54:13.210Z,1.59
2019-01-20T14:56:41.857Z,1.71
2019-01-20T14:59:10.492Z,1.63
2019-01-20T15:01:39.225Z,1.63
2019-01-20T15:04:07.890Z,1.63
2019-01-20T15:06:36.524Z,1.66
2019-01-20T15:09:46.634Z,1.66
2019-01-20T15:12:15.270Z,1.57
2019-01-20T15:14:43.995Z,1.63
2019-01-20T15:17:12.662Z,1.74
2019-01-20T15:19:41.277Z,1.55
2019-01-20T15:22:10.442Z,1.61
2019-01-20T15:24:40.317Z,1.58
2019-01-20T15:27:08.952Z,1.50
2019-01-20T15:29:37.716Z,1.57
2019-01-20T15:32:06.393Z,1.56
2019-01-20T15:34:35.045Z,1.51
2019-01-20T15:37:03.791Z,1.38
2019-01-20T15:42:27.683Z,1.51
2019-01-20T15:44:56.349Z,1.42
2019-01-20T15:47:25.177Z,1.38
2019-01-20T15:49:55.766Z,1.36
2019-01-20T15:52:24.378Z,1.33
2019-01-20T15:54:53.118Z,1.38
2019-01-20T15:57:21.835Z,1.40
2019-01-20T15:59:50.500Z,1.41
2019-01-20T16:02:19.120Z,1.38
2019-01-20T16:04:47.858Z,1.32
2019-01-20T16:10:30.340Z,1.26
2019-01-20T16:12:58.976Z,1.24
2019-01-20T16:15:37.603Z,1.16
2019-01-20T16:18:06.729Z,1.18
2019-01-20T16:20:35.439Z,1.20
2019-01-20T16:23:25.486Z,1.14
2019-01-20T16:28:30.553Z,1.12
2019-01-20T16:30:59.273Z,0.98
2019-01-20T16:33:28.670Z,0.91
2019-01-20T16:36:24.232Z,0.90
2019-01-20T16:41:50.018Z,0.79
2019-01-20T16:44:20.415Z,0.74
2019-01-20T16:46:49.949Z,0.71
2019-01-20T16:49:19.097Z,0.73
2019-01-20T16:51:48.524Z,0.71
2019-01-20T16:54:17.634Z,0.70
2019-01-20T16:56:47.327Z,0.77
2019-01-20T16:59:16.237Z,0.70
2019-01-20T17:01:45.194Z,0.75
2019-01-20T17:04:14.435Z,0.67
2019-01-20T17:06:43.686Z,0.69
2019-01-20T17:17:49.839Z,0.57
2019-01-20T17:20:18.892Z,0.62
2019-01-20T17:23:27.417Z,0.58
2019-01-20T17:26:15.487Z,0.56
2019-01-20T17:28:44.424Z,0.58
2019-01-20T17:31:14.701Z,0.50
2019-01-20T17:33:45.311Z,0.48
2019-01-20T17:36:15.478Z,0.44
2019-01-20T17:38:44.349Z,0.50
2019-01-20T17:41:13.231Z,0.49
2019-01-20T17:43:42.081Z,0.50
2019-01-20T17:46:10.962Z,0.45
2019-01-20T17:48:40.134Z,0.40
2019-01-20T17:51:09.193Z,0.39
2019-01-20T17:53:37.967Z,0.44
2019-01-20T17:56:06.842Z,0.49
2019-01-20T17:58:35.721Z,0.41
2019-01-20T18:01:04.964Z,0.33
2019-01-20T18:03:33.917Z,0.25
2019-01-20T18:06:03.114Z,0.08
2019-01-20T18:08:52.944Z,0.02
2019-01-20T18:14:34.451Z,-0.30
2019-01-20T18:17:05.636Z,-0.39
2019-01-20T18:19:34.766Z,-0.58
2019-01-20T18:22:25.199Z,-0.74
2019-01-20T18:24:54.268Z,-0.82
2019-01-20T18:27:42.299Z,-0.86
2019-01-20T18:33:14.372Z,-1.27
2019-01-20T18:35:43.308Z,-1.27
2019-01-20T18:38:12.332Z,-1.23
2019-01-20T18:40:41.308Z,-1.37
2019-01-20T18:43:49.837Z,-1.51
2019-01-20T18:46:18.721Z,-1.63
2019-01-20T18:48:47.724Z,-1.57
2019-01-20T18:51:17.232Z,-1.70
2019-01-20T18:53:46.530Z,-1.73
2019-01-20T18:56:19.775Z,-1.60
2019-01-20T19:04:25.213Z,-2.12
2019-01-20T19:06:54.162Z,-2.19
2019-01-20T19:09:26.629Z,-2.22
2019-01-20T19:11:55.543Z,-2.15
2019-01-20T19:21:07.009Z,-1.99
2019-01-20T19:26:52.954Z,-2.42
2019-01-20T19:29:41.075Z,-2.44
2019-01-20T19:32:13.573Z,-2.49
2019-01-20T19:34:42.733Z,-2.39
2019-01-20T19:40:32.530Z,-2.60
2019-01-20T19:43:01.528Z,-2.55
2019-01-20T19:57:13.978Z,-2.62
2019-01-20T19:59:43.822Z,-2.72
2019-01-20T20:02:13.719Z,-2.87
2019-01-20T20:04:42.893Z,-3.16
2019-01-20T20:07:17.847Z,-3.06
2019-01-20T20:12:42.783Z,-3.28
2019-01-20T20:18:15.336Z,-3.25
2019-01-20T20:20:44.110Z,-3.23
2019-01-20T20:23:12.947Z,-3.21
2019-01-20T20:25:43.159Z,-3.08
2019-01-20T20:28:14.400Z,-3.14
2019-01-20T20:30:43.649Z,-3.22
2019-01-20T20:36:19.706Z,-3.41
2019-01-20T20:39:13.708Z,-3.30
2019-01-20T20:42:02.069Z,-3.36
2019-01-20T20:44:49.917Z,-3.47
2019-01-20T20:47:18.854Z,-3.44
2019-01-20T20:50:12.994Z,-3.48
2019-01-20T20:53:11.705Z,-3.46
2019-01-20T20:55:16.855Z,-3.47
2019-01-20T21:00:54.357Z,-3.61
2019-01-20T21:03:46.395Z,-3.67
2019-01-20T21:06:17.242Z,-3.70
2019-01-20T21:08:49.574Z,-3.74
2019-01-20T21:20:39.842Z,-3.72
2019-01-20T21:23:12.316Z,-3.70
2019-01-20T21:25:39.887Z,-3.71
2019-01-20T21:29:04.360Z,-3.79
2019-01-20T21:36:42.343Z,-3.93
2019-01-20T21:39:12.235Z,-3.90
2019-01-20T21:41:41.280Z,-3.70
2019-01-20T21:44:31.616Z,-3.59
2019-01-20T21:47:02.969Z,-3.07
2019-01-20T21:49:51.776Z,-3.09
2019-01-20T21:52:45.072Z,-3.08
2019-01-20T21:55:14.230Z,-3.06
2019-01-20T21:58:15.952Z,-3.26
2019-01-20T22:03:27.372Z,-3.54
2019-01-20T22:08:47.412Z,-3.62
2019-01-20T22:11:35.235Z,-3.18
2019-01-20T22:16:40.306Z,-2.57
2019-01-20T22:19:28.460Z,-2.54
2019-01-20T22:22:16.308Z,-2.36
2019-01-20T22:25:27.128Z,-2.32
2019-01-20T22:27:56.595Z,-2.28
2019-01-20T22:30:27.331Z,-2.25
2019-01-20T22:33:15.139Z,-2.13
2019-01-20T22:35:44.312Z,-2.19
2019-01-20T22:38:13.121Z,-2.04
2019-01-20T22:40:42.595Z,-1.98
2019-01-20T22:43:11.327Z,-1.99
2019-01-20T22:48:31.439Z,-1.95
2019-01-20T22:51:00.423Z,-1.96
2019-01-20T22:56:36.871Z,-2.00
2019-01-20T22:59:05.744Z,-2.08
2019-01-20T23:01:57.888Z,-2.00
2019-01-20T23:07:21.864Z,-2.00
2019-01-20T23:09:51.672Z,-2.00
2019-01-20T23:12:20.534Z,-1.91
2019-01-20T23:20:57.727Z,-1.96
2019-01-20T23:23:28.869Z,-2.00
2019-01-20T23:25:57.717Z,-2.03
2019-01-20T23:28:27.564Z,-2.07
2019-01-20T23:30:59.483Z,-2.01
2019-01-20T23:33:28.657Z,-2.02
2019-01-20T23:36:00.266Z,-1.98
2019-01-20T23:38:29.297Z,-2.07
2019-01-20T23:41:37.897Z,-2.05
2019-01-20T23:44:07.009Z,-1.99
2019-01-20T23:46:36.239Z,-2.00
2019-01-20T23:49:05.115Z,-2.11
2019-01-20T23:51:33.945Z,-2.01
2019-01-20T23:54:02.764Z,-2.00
2019-01-20T23:56:32.883Z,-2.11
